Gyzyletrek, Turkmenistan

5:56 AM TMT on November 27, 2014 (GMT +0500)
Kalaleh | Change Station
CLOSE
Current Station
Airport
Location: Kalaleh Airport, -,
Elevation: 423 ft
Nearby Weather Stations

Elev 423 ft 37.38 °N, 55.45 °E | Updated 56 minutes ago

Mostly Cloudy
Mostly Cloudy
43 °F
Feels Like 43 °F
N
0
Wind Variable Wind from North

Today
High -- | Low -- °F
--% Chance of Precip.
Yesterday
High -- | Low -- °F
Precip. -- in
8:12 AM 6:03 PM
Waxing Crescent, 24% visible
Pressure 30.12 in
Visibility 3.1 miles
Clouds Few 2000 ft
Mostly Cloudy 8000 ft
Dew Point 43 °F
Humidity 100%
Rainfall 0.00 in
Snow Depth Not available.
UV 0 out of 12
Pollen Not available.
Air Quality Not available.
Flu Activity Not available.
METAR OINE 270000Z 00000KT 5000 BR FEW020 BKN080 06/06 Q1020

More Conditions Fewer Conditions

Pressure 30.12 in
Visibility 3.1 miles
Clouds Few 2000 ft
Mostly Cloudy 8000 ft
Dew Point 43 °F
Humidity 100%
Rainfall 0.00 in
Snow Depth Not available.
UV 0 out of 12
Pollen Not available.
Air Quality Not available.
Flu Activity Not available.
METAR OINE 270000Z 00000KT 5000 BR FEW020 BKN080 06/06 Q1020

More Conditions Fewer Conditions

10-Day Weather Forecast

Almanac

Astronomy

Nov. 27, 2014 Rise Set
Actual Time
Civil Twilight
Nautical Twilight
Astronomical Twilight
Moon
Length of Visible Light
Length of Day
Tomorrow will be .
, % of the Moon is Illuminated

Today's Extremes

Country Highs Country Lows

Community

WunderPhotos

Upload Photos

1,773,930 photos uploaded!

WunderBlogs® & News

Nearby

Air Quality

  Air Quality AQ Index Pollutant
Not available.

Snow Depth

Station Depth Elevation

Earthquake Activity

City Distance Mag. Time & Date
Minimum magnitude displayed is 2.5.

Coastal Water Temperatures

Place Temperature

Nearby Weather Stations